sensor_id;sensor_type;location;lat;lon;timestamp;P1;durP1;ratioP1;P2;durP2;ratioP2
10432;SDS011;5263;48.680;9.004;2022-11-12T00:00:22;9.43;;;8.37;;
10432;SDS011;5263;48.680;9.004;2022-11-12T00:02:48;18.87;;;9.90;;
10432;SDS011;5263;48.680;9.004;2022-11-12T00:05:13;17.20;;;8.07;;
10432;SDS011;5263;48.680;9.004;2022-11-12T00:07:39;18.93;;;7.93;;
10432;SDS011;5263;48.680;9.004;2022-11-12T00:10:04;42.47;;;12.20;;
10432;SDS011;5263;48.680;9.004;2022-11-12T00:12:30;16.90;;;8.60;;
10432;SDS011;5263;48.680;9.004;2022-11-12T00:14:56;9.13;;;6.97;;
10432;SDS011;5263;48.680;9.004;2022-11-12T00:17:22;8.37;;;7.57;;
10432;SDS011;5263;48.680;9.004;2022-11-12T00:19:47;7.53;;;6.83;;
10432;SDS011;5263;48.680;9.004;2022-11-12T00:22:13;8.40;;;7.50;;
10432;SDS011;5263;48.680;9.004;2022-11-12T00:24:39;36.20;;;9.87;;
10432;SDS011;5263;48.680;9.004;2022-11-12T00:27:05;7.83;;;7.07;;
10432;SDS011;5263;48.680;9.004;2022-11-12T00:29:30;8.57;;;7.70;;
10432;SDS011;5263;48.680;9.004;2022-11-12T00:31:56;7.23;;;6.57;;
10432;SDS011;5263;48.680;9.004;2022-11-12T00:34:21;8.23;;;7.43;;
10432;SDS011;5263;48.680;9.004;2022-11-12T00:36:47;8.07;;;7.27;;
10432;SDS011;5263;48.680;9.004;2022-11-12T00:39:12;7.93;;;7.23;;
10432;SDS011;5263;48.680;9.004;2022-11-12T00:41:38;12.30;;;9.07;;
10432;SDS011;5263;48.680;9.004;2022-11-12T00:44:04;16.43;;;9.30;;
10432;SDS011;5263;48.680;9.004;2022-11-12T00:46:29;8.40;;;7.60;;
10432;SDS011;5263;48.680;9.004;2022-11-12T00:48:55;8.10;;;7.30;;
10432;SDS011;5263;48.680;9.004;2022-11-12T00:51:21;10.37;;;8.27;;
10432;SDS011;5263;48.680;9.004;2022-11-12T00:53:47;8.17;;;7.37;;
10432;SDS011;5263;48.680;9.004;2022-11-12T00:56:15;6.60;;;6.07;;
10432;SDS011;5263;48.680;9.004;2022-11-12T00:58:41;7.70;;;7.00;;
10432;SDS011;5263;48.680;9.004;2022-11-12T01:01:07;11.00;;;7.70;;
10432;SDS011;5263;48.680;9.004;2022-11-12T01:03:38;7.27;;;6.07;;
10432;SDS011;5263;48.680;9.004;2022-11-12T01:06:05;14.40;;;7.27;;
10432;SDS011;5263;48.680;9.004;2022-11-12T01:08:33;80.07;;;10.47;;
10432;SDS011;5263;48.680;9.004;2022-11-12T01:13:34;20.43;;;9.40;;
10432;SDS011;5263;48.680;9.004;2022-11-12T01:16:04;79.27;;;12.70;;
10432;SDS011;5263;48.680;9.004;2022-11-12T01:18:34;33.37;;;10.33;;
10432;SDS011;5263;48.680;9.004;2022-11-12T01:21:03;10.60;;;8.60;;
10432;SDS011;5263;48.680;9.004;2022-11-12T01:23:34;73.23;;;11.30;;
10432;SDS011;5263;48.680;9.004;2022-11-12T01:26:04;30.67;;;10.33;;
10432;SDS011;5263;48.680;9.004;2022-11-12T01:28:31;17.83;;;9.43;;
10432;SDS011;5263;48.680;9.004;2022-11-12T01:30:57;26.67;;;9.63;;
10432;SDS011;5263;48.680;9.004;2022-11-12T01:33:33;17.23;;;9.00;;
10432;SDS011;5263;48.680;9.004;2022-11-12T01:35:59;30.80;;;9.33;;
10432;SDS011;5263;48.680;9.004;2022-11-12T01:38:24;48.13;;;12.20;;
10432;SDS011;5263;48.680;9.004;2022-11-12T01:40:50;41.63;;;10.47;;
10432;SDS011;5263;48.680;9.004;2022-11-12T01:43:15;22.03;;;10.77;;
10432;SDS011;5263;48.680;9.004;2022-11-12T01:45:42;136.27;;;17.33;;
10432;SDS011;5263;48.680;9.004;2022-11-12T01:48:13;16.20;;;9.43;;
10432;SDS011;5263;48.680;9.004;2022-11-12T01:50:57;15.73;;;11.97;;
10432;SDS011;5263;48.680;9.004;2022-11-12T01:53:24;21.70;;;12.50;;
10432;SDS011;5263;48.680;9.004;2022-11-12T01:55:51;33.50;;;13.57;;
10432;SDS011;5263;48.680;9.004;2022-11-12T01:58:19;31.07;;;12.70;;
10432;SDS011;5263;48.680;9.004;2022-11-12T02:00:49;43.83;;;13.00;;
10432;SDS011;5263;48.680;9.004;2022-11-12T02:03:19;94.97;;;16.03;;
10432;SDS011;5263;48.680;9.004;2022-11-12T02:05:47;66.67;;;13.80;;
10432;SDS011;5263;48.680;9.004;2022-11-12T02:08:16;13.47;;;10.13;;
10432;SDS011;5263;48.680;9.004;2022-11-12T02:10:43;14.33;;;10.97;;
10432;SDS011;5263;48.680;9.004;2022-11-12T02:13:09;96.40;;;16.60;;
10432;SDS011;5263;48.680;9.004;2022-11-12T02:15:53;55.27;;;12.80;;
10432;SDS011;5263;48.680;9.004;2022-11-12T02:18:19;85.27;;;14.43;;
10432;SDS011;5263;48.680;9.004;2022-11-12T02:20:52;30.27;;;11.60;;
10432;SDS011;5263;48.680;9.004;2022-11-12T02:23:20;61.07;;;14.00;;
10432;SDS011;5263;48.680;9.004;2022-11-12T02:25:45;81.73;;;13.57;;
10432;SDS011;5263;48.680;9.004;2022-11-12T02:28:11;192.47;;;18.30;;
10432;SDS011;5263;48.680;9.004;2022-11-12T02:30:41;182.77;;;19.13;;
10432;SDS011;5263;48.680;9.004;2022-11-12T02:33:08;144.87;;;14.83;;
10432;SDS011;5263;48.680;9.004;2022-11-12T02:35:34;11.23;;;7.37;;
10432;SDS011;5263;48.680;9.004;2022-11-12T02:38:00;8.37;;;7.20;;
10432;SDS011;5263;48.680;9.004;2022-11-12T02:40:26;55.93;;;10.87;;
10432;SDS011;5263;48.680;9.004;2022-11-12T02:42:52;65.33;;;10.50;;
10432;SDS011;5263;48.680;9.004;2022-11-12T02:45:17;7.93;;;7.13;;
10432;SDS011;5263;48.680;9.004;2022-11-12T02:47:43;30.60;;;7.77;;
10432;SDS011;5263;48.680;9.004;2022-11-12T02:50:09;9.03;;;6.90;;
10432;SDS011;5263;48.680;9.004;2022-11-12T02:52:35;8.83;;;7.80;;
10432;SDS011;5263;48.680;9.004;2022-11-12T02:55:01;6.90;;;6.30;;
10432;SDS011;5263;48.680;9.004;2022-11-12T02:57:27;6.90;;;6.23;;
10432;SDS011;5263;48.680;9.004;2022-11-12T02:59:54;6.37;;;5.77;;
10432;SDS011;5263;48.680;9.004;2022-11-12T03:02:20;6.87;;;5.43;;
10432;SDS011;5263;48.680;9.004;2022-11-12T03:04:45;6.13;;;5.60;;
10432;SDS011;5263;48.680;9.004;2022-11-12T03:07:11;5.33;;;4.83;;
10432;SDS011;5263;48.680;9.004;2022-11-12T03:09:36;6.10;;;5.50;;
10432;SDS011;5263;48.680;9.004;2022-11-12T03:12:02;5.47;;;5.07;;
10432;SDS011;5263;48.680;9.004;2022-11-12T03:14:27;6.77;;;6.20;;
10432;SDS011;5263;48.680;9.004;2022-11-12T03:16:53;4.60;;;4.23;;
10432;SDS011;5263;48.680;9.004;2022-11-12T03:19:19;5.60;;;5.10;;
10432;SDS011;5263;48.680;9.004;2022-11-12T03:21:44;4.70;;;4.30;;
10432;SDS011;5263;48.680;9.004;2022-11-12T03:24:10;5.27;;;4.60;;
10432;SDS011;5263;48.680;9.004;2022-11-12T03:26:35;3.97;;;3.67;;
10432;SDS011;5263;48.680;9.004;2022-11-12T03:29:01;4.60;;;4.20;;
10432;SDS011;5263;48.680;9.004;2022-11-12T03:31:27;4.47;;;4.07;;
10432;SDS011;5263;48.680;9.004;2022-11-12T03:33:53;4.50;;;4.10;;
10432;SDS011;5263;48.680;9.004;2022-11-12T03:36:18;5.53;;;5.03;;
10432;SDS011;5263;48.680;9.004;2022-11-12T03:38:44;5.40;;;4.90;;
10432;SDS011;5263;48.680;9.004;2022-11-12T03:41:09;5.73;;;5.07;;
10432;SDS011;5263;48.680;9.004;2022-11-12T03:43:35;4.23;;;3.93;;
10432;SDS011;5263;48.680;9.004;2022-11-12T03:46:00;5.47;;;4.97;;
10432;SDS011;5263;48.680;9.004;2022-11-12T03:48:26;6.10;;;5.60;;
10432;SDS011;5263;48.680;9.004;2022-11-12T03:50:52;4.20;;;3.90;;
10432;SDS011;5263;48.680;9.004;2022-11-12T03:53:21;5.53;;;4.93;;
10432;SDS011;5263;48.680;9.004;2022-11-12T03:55:47;6.43;;;5.83;;
10432;SDS011;5263;48.680;9.004;2022-11-12T03:58:12;4.40;;;4.10;;
10432;SDS011;5263;48.680;9.004;2022-11-12T04:00:38;5.23;;;4.43;;
10432;SDS011;5263;48.680;9.004;2022-11-12T04:03:04;3.90;;;3.60;;
10432;SDS011;5263;48.680;9.004;2022-11-12T04:05:30;5.50;;;4.63;;
10432;SDS011;5263;48.680;9.004;2022-11-12T04:08:15;4.37;;;3.97;;
10432;SDS011;5263;48.680;9.004;2022-11-12T04:11:05;4.83;;;4.43;;
10432;SDS011;5263;48.680;9.004;2022-11-12T04:13:31;4.23;;;3.93;;
10432;SDS011;5263;48.680;9.004;2022-11-12T04:15:58;5.43;;;5.00;;
10432;SDS011;5263;48.680;9.004;2022-11-12T04:18:45;6.90;;;4.30;;
10432;SDS011;5263;48.680;9.004;2022-11-12T04:21:41;5.03;;;4.50;;
10432;SDS011;5263;48.680;9.004;2022-11-12T04:24:15;4.70;;;4.30;;
10432;SDS011;5263;48.680;9.004;2022-11-12T04:27:03;4.83;;;4.37;;
10432;SDS011;5263;48.680;9.004;2022-11-12T04:29:29;3.90;;;3.60;;
10432;SDS011;5263;48.680;9.004;2022-11-12T04:32:13;3.77;;;3.47;;
10432;SDS011;5263;48.680;9.004;2022-11-12T04:34:39;5.07;;;4.67;;
10432;SDS011;5263;48.680;9.004;2022-11-12T04:37:04;4.10;;;3.80;;
10432;SDS011;5263;48.680;9.004;2022-11-12T04:39:30;4.77;;;3.93;;
10432;SDS011;5263;48.680;9.004;2022-11-12T04:41:56;4.50;;;4.10;;
10432;SDS011;5263;48.680;9.004;2022-11-12T04:44:41;4.40;;;4.00;;
10432;SDS011;5263;48.680;9.004;2022-11-12T04:47:27;5.83;;;4.07;;
10432;SDS011;5263;48.680;9.004;2022-11-12T04:49:53;4.60;;;4.17;;
10432;SDS011;5263;48.680;9.004;2022-11-12T04:52:19;4.17;;;3.87;;
10432;SDS011;5263;48.680;9.004;2022-11-12T04:54:45;4.33;;;4.03;;
10432;SDS011;5263;48.680;9.004;2022-11-12T04:57:10;4.03;;;3.63;;
10432;SDS011;5263;48.680;9.004;2022-11-12T04:59:36;4.00;;;3.50;;
10432;SDS011;5263;48.680;9.004;2022-11-12T05:02:02;4.27;;;3.90;;
10432;SDS011;5263;48.680;9.004;2022-11-12T05:04:27;4.10;;;3.70;;
10432;SDS011;5263;48.680;9.004;2022-11-12T05:06:56;3.37;;;3.17;;
10432;SDS011;5263;48.680;9.004;2022-11-12T05:09:23;4.23;;;3.93;;
10432;SDS011;5263;48.680;9.004;2022-11-12T05:11:50;3.83;;;3.53;;
10432;SDS011;5263;48.680;9.004;2022-11-12T05:14:17;6.43;;;4.03;;
10432;SDS011;5263;48.680;9.004;2022-11-12T05:16:43;3.87;;;3.63;;
10432;SDS011;5263;48.680;9.004;2022-11-12T05:19:09;3.87;;;3.57;;
10432;SDS011;5263;48.680;9.004;2022-11-12T05:21:34;5.23;;;3.67;;
10432;SDS011;5263;48.680;9.004;2022-11-12T05:24:18;4.07;;;3.77;;
10432;SDS011;5263;48.680;9.004;2022-11-12T05:26:44;4.33;;;3.93;;
10432;SDS011;5263;48.680;9.004;2022-11-12T05:29:09;4.43;;;4.13;;
10432;SDS011;5263;48.680;9.004;2022-11-12T05:31:35;3.87;;;3.57;;
10432;SDS011;5263;48.680;9.004;2022-11-12T05:34:00;3.67;;;3.47;;
10432;SDS011;5263;48.680;9.004;2022-11-12T05:36:26;4.80;;;4.30;;
10432;SDS011;5263;48.680;9.004;2022-11-12T05:38:52;4.67;;;4.30;;
10432;SDS011;5263;48.680;9.004;2022-11-12T05:41:17;5.47;;;4.80;;
10432;SDS011;5263;48.680;9.004;2022-11-12T05:43:43;4.60;;;4.13;;
10432;SDS011;5263;48.680;9.004;2022-11-12T05:46:09;4.43;;;4.13;;
10432;SDS011;5263;48.680;9.004;2022-11-12T05:48:34;3.97;;;3.67;;
10432;SDS011;5263;48.680;9.004;2022-11-12T05:51:00;3.77;;;3.47;;
10432;SDS011;5263;48.680;9.004;2022-11-12T05:53:25;4.83;;;3.30;;
10432;SDS011;5263;48.680;9.004;2022-11-12T05:55:51;4.40;;;4.00;;
10432;SDS011;5263;48.680;9.004;2022-11-12T05:58:17;4.07;;;3.77;;
10432;SDS011;5263;48.680;9.004;2022-11-12T06:00:42;3.97;;;3.50;;
10432;SDS011;5263;48.680;9.004;2022-11-12T06:03:08;5.27;;;4.20;;
10432;SDS011;5263;48.680;9.004;2022-11-12T06:05:34;3.67;;;3.47;;
10432;SDS011;5263;48.680;9.004;2022-11-12T06:08:00;4.00;;;3.33;;
10432;SDS011;5263;48.680;9.004;2022-11-12T06:10:26;5.10;;;3.53;;
10432;SDS011;5263;48.680;9.004;2022-11-12T06:12:52;4.30;;;4.00;;
10432;SDS011;5263;48.680;9.004;2022-11-12T06:15:18;3.57;;;3.37;;
10432;SDS011;5263;48.680;9.004;2022-11-12T06:17:43;3.93;;;3.53;;
10432;SDS011;5263;48.680;9.004;2022-11-12T06:20:09;4.20;;;3.80;;
10432;SDS011;5263;48.680;9.004;2022-11-12T06:22:35;5.30;;;4.70;;
10432;SDS011;5263;48.680;9.004;2022-11-12T06:25:01;5.00;;;4.57;;
10432;SDS011;5263;48.680;9.004;2022-11-12T06:27:28;4.17;;;3.87;;
10432;SDS011;5263;48.680;9.004;2022-11-12T06:29:53;5.67;;;4.73;;
10432;SDS011;5263;48.680;9.004;2022-11-12T06:32:19;4.20;;;3.77;;
10432;SDS011;5263;48.680;9.004;2022-11-12T06:34:44;4.57;;;4.17;;
10432;SDS011;5263;48.680;9.004;2022-11-12T06:37:10;11.33;;;4.20;;
10432;SDS011;5263;48.680;9.004;2022-11-12T06:39:36;5.67;;;4.63;;
10432;SDS011;5263;48.680;9.004;2022-11-12T06:42:01;5.17;;;4.63;;
10432;SDS011;5263;48.680;9.004;2022-11-12T06:44:27;4.90;;;4.50;;
10432;SDS011;5263;48.680;9.004;2022-11-12T06:46:52;8.17;;;5.00;;
10432;SDS011;5263;48.680;9.004;2022-11-12T06:49:18;4.90;;;4.50;;
10432;SDS011;5263;48.680;9.004;2022-11-12T06:51:44;5.23;;;4.80;;
10432;SDS011;5263;48.680;9.004;2022-11-12T06:54:09;5.23;;;4.73;;
10432;SDS011;5263;48.680;9.004;2022-11-12T06:56:35;7.17;;;4.73;;
10432;SDS011;5263;48.680;9.004;2022-11-12T06:59:00;6.70;;;4.50;;
10432;SDS011;5263;48.680;9.004;2022-11-12T07:01:26;4.20;;;3.80;;
10432;SDS011;5263;48.680;9.004;2022-11-12T07:03:52;4.07;;;3.77;;
10432;SDS011;5263;48.680;9.004;2022-11-12T07:06:18;6.33;;;4.17;;
10432;SDS011;5263;48.680;9.004;2022-11-12T07:08:47;4.73;;;4.33;;
10432;SDS011;5263;48.680;9.004;2022-11-12T07:11:14;4.70;;;4.30;;
10432;SDS011;5263;48.680;9.004;2022-11-12T07:13:41;4.87;;;4.37;;
10432;SDS011;5263;48.680;9.004;2022-11-12T07:16:08;4.50;;;4.20;;
10432;SDS011;5263;48.680;9.004;2022-11-12T07:18:35;5.30;;;4.33;;
10432;SDS011;5263;48.680;9.004;2022-11-12T07:21:06;4.37;;;3.63;;
10432;SDS011;5263;48.680;9.004;2022-11-12T07:23:33;3.50;;;3.20;;
10432;SDS011;5263;48.680;9.004;2022-11-12T07:28:27;3.53;;;3.23;;
10432;SDS011;5263;48.680;9.004;2022-11-12T07:33:23;3.47;;;3.17;;
10432;SDS011;5263;48.680;9.004;2022-11-12T07:35:54;3.00;;;2.80;;
10432;SDS011;5263;48.680;9.004;2022-11-12T07:38:41;2.93;;;2.73;;
10432;SDS011;5263;48.680;9.004;2022-11-12T07:43:37;4.57;;;2.63;;
10432;SDS011;5263;48.680;9.004;2022-11-12T07:46:04;2.73;;;2.53;;
10432;SDS011;5263;48.680;9.004;2022-11-12T07:48:32;2.60;;;2.40;;
10432;SDS011;5263;48.680;9.004;2022-11-12T07:50:59;3.00;;;2.90;;
10432;SDS011;5263;48.680;9.004;2022-11-12T07:53:26;3.40;;;3.20;;
10432;SDS011;5263;48.680;9.004;2022-11-12T07:55:53;3.00;;;2.80;;
10432;SDS011;5263;48.680;9.004;2022-11-12T07:58:19;2.97;;;2.67;;
10432;SDS011;5263;48.680;9.004;2022-11-12T08:00:45;2.73;;;2.53;;
10432;SDS011;5263;48.680;9.004;2022-11-12T08:03:11;2.77;;;2.57;;
10432;SDS011;5263;48.680;9.004;2022-11-12T08:05:36;1.90;;;1.80;;
10432;SDS011;5263;48.680;9.004;2022-11-12T08:08:02;1.80;;;1.70;;
10432;SDS011;5263;48.680;9.004;2022-11-12T08:10:28;2.17;;;1.83;;
10432;SDS011;5263;48.680;9.004;2022-11-12T08:12:54;1.80;;;1.70;;
10432;SDS011;5263;48.680;9.004;2022-11-12T08:15:20;1.90;;;1.80;;
10432;SDS011;5263;48.680;9.004;2022-11-12T08:17:46;1.90;;;1.80;;
10432;SDS011;5263;48.680;9.004;2022-11-12T08:20:11;2.27;;;1.80;;
10432;SDS011;5263;48.680;9.004;2022-11-12T08:22:37;1.10;;;1.10;;
10432;SDS011;5263;48.680;9.004;2022-11-12T08:25:03;1.03;;;1.03;;
10432;SDS011;5263;48.680;9.004;2022-11-12T08:27:29;1.50;;;1.40;;
10432;SDS011;5263;48.680;9.004;2022-11-12T08:29:54;1.73;;;1.63;;
10432;SDS011;5263;48.680;9.004;2022-11-12T08:32:20;1.00;;;1.00;;
10432;SDS011;5263;48.680;9.004;2022-11-12T08:34:45;2.30;;;1.13;;
10432;SDS011;5263;48.680;9.004;2022-11-12T08:37:11;0.97;;;0.97;;
10432;SDS011;5263;48.680;9.004;2022-11-12T08:39:37;1.30;;;1.20;;
10432;SDS011;5263;48.680;9.004;2022-11-12T08:42:03;1.53;;;1.43;;
10432;SDS011;5263;48.680;9.004;2022-11-12T08:44:29;1.53;;;1.43;;
10432;SDS011;5263;48.680;9.004;2022-11-12T08:46:55;1.10;;;1.10;;
10432;SDS011;5263;48.680;9.004;2022-11-12T08:49:21;1.40;;;1.30;;
10432;SDS011;5263;48.680;9.004;2022-11-12T08:51:46;5.60;;;1.17;;
10432;SDS011;5263;48.680;9.004;2022-11-12T08:54:12;1.00;;;0.97;;
10432;SDS011;5263;48.680;9.004;2022-11-12T08:56:37;2.30;;;1.00;;
10432;SDS011;5263;48.680;9.004;2022-11-12T08:59:04;2.33;;;1.10;;
10432;SDS011;5263;48.680;9.004;2022-11-12T09:01:30;0.90;;;0.90;;
10432;SDS011;5263;48.680;9.004;2022-11-12T09:03:55;3.87;;;1.57;;
10432;SDS011;5263;48.680;9.004;2022-11-12T09:06:21;3.70;;;1.10;;
10432;SDS011;5263;48.680;9.004;2022-11-12T09:08:47;1.00;;;1.00;;
10432;SDS011;5263;48.680;9.004;2022-11-12T09:11:13;0.97;;;0.90;;
10432;SDS011;5263;48.680;9.004;2022-11-12T09:13:38;1.17;;;1.07;;
10432;SDS011;5263;48.680;9.004;2022-11-12T09:16:05;1.83;;;1.30;;
10432;SDS011;5263;48.680;9.004;2022-11-12T09:18:31;0.90;;;0.90;;
10432;SDS011;5263;48.680;9.004;2022-11-12T09:21:08;1.00;;;1.00;;
10432;SDS011;5263;48.680;9.004;2022-11-12T09:23:35;1.43;;;1.00;;
10432;SDS011;5263;48.680;9.004;2022-11-12T09:26:02;1.10;;;1.10;;
10432;SDS011;5263;48.680;9.004;2022-11-12T09:28:28;1.27;;;0.70;;
10432;SDS011;5263;48.680;9.004;2022-11-12T09:30:54;1.87;;;0.90;;
10432;SDS011;5263;48.680;9.004;2022-11-12T09:33:21;0.80;;;0.80;;
10432;SDS011;5263;48.680;9.004;2022-11-12T09:35:52;0.90;;;0.90;;
10432;SDS011;5263;48.680;9.004;2022-11-12T09:38:18;0.90;;;0.90;;
10432;SDS011;5263;48.680;9.004;2022-11-12T09:45:48;0.80;;;0.80;;
10432;SDS011;5263;48.680;9.004;2022-11-12T09:48:17;0.70;;;0.70;;
10432;SDS011;5263;48.680;9.004;2022-11-12T09:50:56;0.90;;;0.90;;
10432;SDS011;5263;48.680;9.004;2022-11-12T09:53:27;0.70;;;0.70;;
10432;SDS011;5263;48.680;9.004;2022-11-12T09:56:08;0.80;;;0.80;;
10432;SDS011;5263;48.680;9.004;2022-11-12T09:58:37;0.70;;;0.70;;
10432;SDS011;5263;48.680;9.004;2022-11-12T10:01:28;0.70;;;0.70;;
10432;SDS011;5263;48.680;9.004;2022-11-12T10:18:31;0.93;;;0.80;;
10432;SDS011;5263;48.680;9.004;2022-11-12T10:21:11;0.60;;;0.60;;
10432;SDS011;5263;48.680;9.004;2022-11-12T10:23:48;6.77;;;0.50;;
10432;SDS011;5263;48.680;9.004;2022-11-12T10:26:17;0.50;;;0.50;;
10432;SDS011;5263;48.680;9.004;2022-11-12T10:28:58;1.47;;;0.50;;
10432;SDS011;5263;48.680;9.004;2022-11-12T10:31:37;0.60;;;0.60;;
10432;SDS011;5263;48.680;9.004;2022-11-12T10:34:18;2.20;;;0.50;;
10432;SDS011;5263;48.680;9.004;2022-11-12T10:36:50;0.70;;;0.60;;
10432;SDS011;5263;48.680;9.004;2022-11-12T10:42:07;0.53;;;0.53;;
10432;SDS011;5263;48.680;9.004;2022-11-12T10:44:38;0.50;;;0.50;;
10432;SDS011;5263;48.680;9.004;2022-11-12T10:50:09;1.23;;;0.50;;
10432;SDS011;5263;48.680;9.004;2022-11-12T10:52:42;0.70;;;0.70;;
10432;SDS011;5263;48.680;9.004;2022-11-12T10:55:22;0.60;;;0.60;;
10432;SDS011;5263;48.680;9.004;2022-11-12T11:03:36;2.97;;;0.50;;
10432;SDS011;5263;48.680;9.004;2022-11-12T11:08:48;2.67;;;0.60;;
10432;SDS011;5263;48.680;9.004;2022-11-12T11:11:20;1.23;;;0.70;;
10432;SDS011;5263;48.680;9.004;2022-11-12T11:13:52;0.60;;;0.60;;
10432;SDS011;5263;48.680;9.004;2022-11-12T11:16:24;0.80;;;0.80;;
10432;SDS011;5263;48.680;9.004;2022-11-12T11:18:53;4.10;;;0.80;;
10432;SDS011;5263;48.680;9.004;2022-11-12T11:27:01;0.50;;;0.50;;
10432;SDS011;5263;48.680;9.004;2022-11-12T11:29:46;0.50;;;0.40;;
10432;SDS011;5263;48.680;9.004;2022-11-12T11:51:50;1.03;;;0.77;;
10432;SDS011;5263;48.680;9.004;2022-11-12T11:56:55;0.90;;;0.90;;
10432;SDS011;5263;48.680;9.004;2022-11-12T12:04:25;0.57;;;0.57;;
10432;SDS011;5263;48.680;9.004;2022-11-12T12:13:08;0.73;;;0.70;;
10432;SDS011;5263;48.680;9.004;2022-11-12T12:21:30;2.97;;;0.80;;
10432;SDS011;5263;48.680;9.004;2022-11-12T12:24:03;0.93;;;0.93;;
10432;SDS011;5263;48.680;9.004;2022-11-12T12:26:41;1.33;;;0.77;;
10432;SDS011;5263;48.680;9.004;2022-11-12T12:29:27;2.03;;;0.80;;
10432;SDS011;5263;48.680;9.004;2022-11-12T12:34:51;2.20;;;0.90;;
10432;SDS011;5263;48.680;9.004;2022-11-12T12:37:30;0.90;;;0.80;;
10432;SDS011;5263;48.680;9.004;2022-11-12T12:40:25;8.50;;;0.90;;
10432;SDS011;5263;48.680;9.004;2022-11-12T12:45:42;1.57;;;1.00;;
10432;SDS011;5263;48.680;9.004;2022-11-12T12:48:19;1.43;;;1.30;;
10432;SDS011;5263;48.680;9.004;2022-11-12T12:50:51;1.03;;;0.93;;
10432;SDS011;5263;48.680;9.004;2022-11-12T12:55:47;5.17;;;1.00;;
10432;SDS011;5263;48.680;9.004;2022-11-12T12:58:15;1.47;;;0.70;;
10432;SDS011;5263;48.680;9.004;2022-11-12T13:00:41;3.03;;;0.97;;
10432;SDS011;5263;48.680;9.004;2022-11-12T13:03:12;1.60;;;0.63;;
10432;SDS011;5263;48.680;9.004;2022-11-12T13:06:21;0.93;;;0.83;;
10432;SDS011;5263;48.680;9.004;2022-11-12T13:19:33;1.37;;;0.70;;
10432;SDS011;5263;48.680;9.004;2022-11-12T13:40:13;5.20;;;1.00;;
10432;SDS011;5263;48.680;9.004;2022-11-12T13:48:35;2.73;;;1.90;;
10432;SDS011;5263;48.680;9.004;2022-11-12T13:51:12;1.93;;;1.67;;
10432;SDS011;5263;48.680;9.004;2022-11-12T13:53:42;3.57;;;1.83;;
10432;SDS011;5263;48.680;9.004;2022-11-12T13:56:11;2.40;;;2.17;;
10432;SDS011;5263;48.680;9.004;2022-11-12T13:58:47;1.77;;;1.67;;
10432;SDS011;5263;48.680;9.004;2022-11-12T14:01:13;2.50;;;2.30;;
10432;SDS011;5263;48.680;9.004;2022-11-12T14:03:46;3.00;;;1.77;;
10432;SDS011;5263;48.680;9.004;2022-11-12T14:06:18;2.97;;;2.17;;
10432;SDS011;5263;48.680;9.004;2022-11-12T14:16:57;1.80;;;1.70;;
10432;SDS011;5263;48.680;9.004;2022-11-12T14:19:41;6.77;;;2.23;;
10432;SDS011;5263;48.680;9.004;2022-11-12T14:22:42;3.30;;;2.33;;
10432;SDS011;5263;48.680;9.004;2022-11-12T14:25:12;2.70;;;2.50;;
10432;SDS011;5263;48.680;9.004;2022-11-12T14:27:47;2.40;;;2.20;;
10432;SDS011;5263;48.680;9.004;2022-11-12T14:30:18;4.10;;;2.57;;
10432;SDS011;5263;48.680;9.004;2022-11-12T14:32:48;3.37;;;2.60;;
10432;SDS011;5263;48.680;9.004;2022-11-12T14:37:51;5.20;;;2.30;;
10432;SDS011;5263;48.680;9.004;2022-11-12T14:40:22;2.27;;;2.07;;
10432;SDS011;5263;48.680;9.004;2022-11-12T14:42:49;2.57;;;2.23;;
10432;SDS011;5263;48.680;9.004;2022-11-12T14:45:16;2.57;;;2.30;;
10432;SDS011;5263;48.680;9.004;2022-11-12T14:47:44;2.27;;;2.07;;
10432;SDS011;5263;48.680;9.004;2022-11-12T14:50:16;2.50;;;2.30;;
10432;SDS011;5263;48.680;9.004;2022-11-12T14:52:54;4.40;;;2.00;;
10432;SDS011;5263;48.680;9.004;2022-11-12T14:55:26;3.70;;;2.97;;
10432;SDS011;5263;48.680;9.004;2022-11-12T14:57:55;2.40;;;2.20;;
10432;SDS011;5263;48.680;9.004;2022-11-12T15:02:54;4.07;;;2.60;;
10432;SDS011;5263;48.680;9.004;2022-11-12T15:05:21;3.73;;;3.17;;
10432;SDS011;5263;48.680;9.004;2022-11-12T15:07:55;3.17;;;2.40;;
10432;SDS011;5263;48.680;9.004;2022-11-12T15:13:11;5.27;;;2.83;;
10432;SDS011;5263;48.680;9.004;2022-11-12T15:15:54;5.13;;;3.00;;
10432;SDS011;5263;48.680;9.004;2022-11-12T15:18:31;4.83;;;2.90;;
10432;SDS011;5263;48.680;9.004;2022-11-12T15:23:26;6.20;;;3.97;;
10432;SDS011;5263;48.680;9.004;2022-11-12T15:25:59;4.43;;;4.03;;
10432;SDS011;5263;48.680;9.004;2022-11-12T15:28:25;3.90;;;3.60;;
10432;SDS011;5263;48.680;9.004;2022-11-12T15:31:01;4.53;;;3.40;;
10432;SDS011;5263;48.680;9.004;2022-11-12T15:33:31;3.87;;;2.90;;
10432;SDS011;5263;48.680;9.004;2022-11-12T15:35:57;3.73;;;3.33;;
10432;SDS011;5263;48.680;9.004;2022-11-12T15:38:26;4.30;;;3.63;;
10432;SDS011;5263;48.680;9.004;2022-11-12T15:40:56;4.20;;;3.40;;
10432;SDS011;5263;48.680;9.004;2022-11-12T15:43:32;4.13;;;3.73;;
10432;SDS011;5263;48.680;9.004;2022-11-12T15:46:00;3.70;;;3.13;;
10432;SDS011;5263;48.680;9.004;2022-11-12T15:48:26;3.87;;;3.40;;
10432;SDS011;5263;48.680;9.004;2022-11-12T15:50:51;4.13;;;3.63;;
10432;SDS011;5263;48.680;9.004;2022-11-12T15:53:18;3.47;;;2.93;;
10432;SDS011;5263;48.680;9.004;2022-11-12T15:55:44;4.27;;;3.60;;
10432;SDS011;5263;48.680;9.004;2022-11-12T15:58:13;5.17;;;4.37;;
10432;SDS011;5263;48.680;9.004;2022-11-12T16:00:51;5.43;;;4.20;;
10432;SDS011;5263;48.680;9.004;2022-11-12T16:03:17;4.07;;;3.20;;
10432;SDS011;5263;48.680;9.004;2022-11-12T16:05:45;4.63;;;3.83;;
10432;SDS011;5263;48.680;9.004;2022-11-12T16:08:11;4.30;;;3.90;;
10432;SDS011;5263;48.680;9.004;2022-11-12T16:10:40;4.47;;;4.17;;
10432;SDS011;5263;48.680;9.004;2022-11-12T16:13:24;5.00;;;4.50;;
10432;SDS011;5263;48.680;9.004;2022-11-12T16:15:52;4.87;;;4.00;;
10432;SDS011;5263;48.680;9.004;2022-11-12T16:18:18;16.63;;;14.27;;
10432;SDS011;5263;48.680;9.004;2022-11-12T16:20:44;9.27;;;8.37;;
10432;SDS011;5263;48.680;9.004;2022-11-12T16:23:11;7.10;;;5.97;;
10432;SDS011;5263;48.680;9.004;2022-11-12T16:25:37;8.20;;;7.40;;
10432;SDS011;5263;48.680;9.004;2022-11-12T16:28:08;7.00;;;6.50;;
10432;SDS011;5263;48.680;9.004;2022-11-12T16:30:39;7.80;;;7.00;;
10432;SDS011;5263;48.680;9.004;2022-11-12T16:33:05;8.80;;;5.43;;
10432;SDS011;5263;48.680;9.004;2022-11-12T16:35:33;5.90;;;5.40;;
10432;SDS011;5263;48.680;9.004;2022-11-12T16:37:59;7.67;;;6.97;;
10432;SDS011;5263;48.680;9.004;2022-11-12T16:40:26;7.87;;;7.07;;
10432;SDS011;5263;48.680;9.004;2022-11-12T16:42:53;10.20;;;7.07;;
10432;SDS011;5263;48.680;9.004;2022-11-12T16:45:23;8.40;;;7.60;;
10432;SDS011;5263;48.680;9.004;2022-11-12T16:47:55;12.47;;;9.83;;
10432;SDS011;5263;48.680;9.004;2022-11-12T16:50:23;12.13;;;8.73;;
10432;SDS011;5263;48.680;9.004;2022-11-12T16:52:51;8.77;;;7.93;;
10432;SDS011;5263;48.680;9.004;2022-11-12T16:55:17;7.47;;;6.63;;
10432;SDS011;5263;48.680;9.004;2022-11-12T16:57:43;8.50;;;6.00;;
10432;SDS011;5263;48.680;9.004;2022-11-12T17:00:10;8.33;;;5.53;;
10432;SDS011;5263;48.680;9.004;2022-11-12T17:02:37;11.33;;;7.60;;
10432;SDS011;5263;48.680;9.004;2022-11-12T17:05:03;7.93;;;7.13;;
10432;SDS011;5263;48.680;9.004;2022-11-12T17:07:31;9.53;;;7.03;;
10432;SDS011;5263;48.680;9.004;2022-11-12T17:09:57;9.20;;;7.87;;
10432;SDS011;5263;48.680;9.004;2022-11-12T17:12:23;9.00;;;6.57;;
10432;SDS011;5263;48.680;9.004;2022-11-12T17:14:48;8.83;;;6.93;;
10432;SDS011;5263;48.680;9.004;2022-11-12T17:17:14;7.43;;;6.50;;
10432;SDS011;5263;48.680;9.004;2022-11-12T17:19:39;7.60;;;6.67;;
10432;SDS011;5263;48.680;9.004;2022-11-12T17:22:05;6.90;;;6.10;;
10432;SDS011;5263;48.680;9.004;2022-11-12T17:24:31;9.63;;;8.53;;
10432;SDS011;5263;48.680;9.004;2022-11-12T17:26:56;14.17;;;9.47;;
10432;SDS011;5263;48.680;9.004;2022-11-12T17:29:24;10.03;;;9.00;;
10432;SDS011;5263;48.680;9.004;2022-11-12T17:31:49;10.67;;;9.10;;
10432;SDS011;5263;48.680;9.004;2022-11-12T17:34:15;8.80;;;7.90;;
10432;SDS011;5263;48.680;9.004;2022-11-12T17:36:40;7.83;;;7.03;;